sensor_id;sensor_type;location;lat;lon;timestamp;P1;durP1;ratioP1;P2;durP2;ratioP2
12745;SDS011;6437;53.686;10.030;2022-10-31T00:02:16;27.90;;;18.70;;
12745;SDS011;6437;53.686;10.030;2022-10-31T00:05:18;32.97;;;19.27;;
12745;SDS011;6437;53.686;10.030;2022-10-31T00:08:20;31.15;;;19.90;;
12745;SDS011;6437;53.686;10.030;2022-10-31T00:11:22;33.33;;;21.05;;
12745;SDS011;6437;53.686;10.030;2022-10-31T00:14:26;25.35;;;18.23;;
12745;SDS011;6437;53.686;10.030;2022-10-31T00:17:28;37.80;;;19.38;;
12745;SDS011;6437;53.686;10.030;2022-10-31T00:20:29;31.13;;;20.52;;
12745;SDS011;6437;53.686;10.030;2022-10-31T00:23:32;30.10;;;21.40;;
12745;SDS011;6437;53.686;10.030;2022-10-31T00:26:34;37.30;;;21.80;;
12745;SDS011;6437;53.686;10.030;2022-10-31T00:29:37;25.88;;;18.60;;
12745;SDS011;6437;53.686;10.030;2022-10-31T00:32:39;38.45;;;19.95;;
12745;SDS011;6437;53.686;10.030;2022-10-31T00:35:40;38.20;;;22.70;;
12745;SDS011;6437;53.686;10.030;2022-10-31T00:38:43;42.42;;;19.58;;
12745;SDS011;6437;53.686;10.030;2022-10-31T00:41:45;36.90;;;20.73;;
12745;SDS011;6437;53.686;10.030;2022-10-31T00:44:51;40.40;;;22.52;;
12745;SDS011;6437;53.686;10.030;2022-10-31T00:47:53;30.08;;;19.98;;
12745;SDS011;6437;53.686;10.030;2022-10-31T00:50:55;37.10;;;20.13;;
12745;SDS011;6437;53.686;10.030;2022-10-31T00:53:57;36.83;;;19.83;;
12745;SDS011;6437;53.686;10.030;2022-10-31T00:56:59;39.65;;;21.42;;
12745;SDS011;6437;53.686;10.030;2022-10-31T01:00:02;33.97;;;18.15;;
12745;SDS011;6437;53.686;10.030;2022-10-31T01:03:04;39.85;;;21.08;;
12745;SDS011;6437;53.686;10.030;2022-10-31T01:06:07;28.33;;;18.02;;
12745;SDS011;6437;53.686;10.030;2022-10-31T01:09:10;38.47;;;22.05;;
12745;SDS011;6437;53.686;10.030;2022-10-31T01:12:12;36.72;;;21.02;;
12745;SDS011;6437;53.686;10.030;2022-10-31T01:15:16;32.33;;;18.13;;
12745;SDS011;6437;53.686;10.030;2022-10-31T01:18:21;36.95;;;17.95;;
12745;SDS011;6437;53.686;10.030;2022-10-31T01:21:23;35.10;;;19.38;;
12745;SDS011;6437;53.686;10.030;2022-10-31T01:27:28;34.70;;;17.67;;
12745;SDS011;6437;53.686;10.030;2022-10-31T01:30:33;39.25;;;19.10;;
12745;SDS011;6437;53.686;10.030;2022-10-31T01:33:35;35.03;;;17.02;;
12745;SDS011;6437;53.686;10.030;2022-10-31T01:36:39;33.78;;;17.67;;
12745;SDS011;6437;53.686;10.030;2022-10-31T01:39:41;40.88;;;23.35;;
12745;SDS011;6437;53.686;10.030;2022-10-31T01:42:43;31.30;;;19.23;;
12745;SDS011;6437;53.686;10.030;2022-10-31T01:45:48;38.83;;;21.02;;
12745;SDS011;6437;53.686;10.030;2022-10-31T01:48:54;41.13;;;20.35;;
12745;SDS011;6437;53.686;10.030;2022-10-31T01:51:59;37.03;;;17.90;;
12745;SDS011;6437;53.686;10.030;2022-10-31T01:55:06;49.40;;;19.95;;
12745;SDS011;6437;53.686;10.030;2022-10-31T01:58:13;39.20;;;21.70;;
12745;SDS011;6437;53.686;10.030;2022-10-31T02:01:19;52.63;;;20.52;;
12745;SDS011;6437;53.686;10.030;2022-10-31T02:04:21;41.30;;;20.95;;
12745;SDS011;6437;53.686;10.030;2022-10-31T02:07:26;42.10;;;21.48;;
12745;SDS011;6437;53.686;10.030;2022-10-31T02:10:34;30.90;;;20.92;;
12745;SDS011;6437;53.686;10.030;2022-10-31T02:13:38;39.50;;;21.63;;
12745;SDS011;6437;53.686;10.030;2022-10-31T02:16:41;44.33;;;22.42;;
12745;SDS011;6437;53.686;10.030;2022-10-31T02:19:45;44.90;;;20.17;;
12745;SDS011;6437;53.686;10.030;2022-10-31T02:23:05;38.17;;;20.77;;
12745;SDS011;6437;53.686;10.030;2022-10-31T02:30:06;39.25;;;20.77;;
12745;SDS011;6437;53.686;10.030;2022-10-31T02:33:28;39.70;;;20.20;;
12745;SDS011;6437;53.686;10.030;2022-10-31T02:36:35;50.30;;;21.55;;
12745;SDS011;6437;53.686;10.030;2022-10-31T02:39:47;30.88;;;19.23;;
12745;SDS011;6437;53.686;10.030;2022-10-31T02:42:57;41.50;;;22.00;;
12745;SDS011;6437;53.686;10.030;2022-10-31T02:46:04;44.20;;;20.42;;
12745;SDS011;6437;53.686;10.030;2022-10-31T02:49:14;32.60;;;19.98;;
12745;SDS011;6437;53.686;10.030;2022-10-31T02:52:24;57.20;;;25.48;;
12745;SDS011;6437;53.686;10.030;2022-10-31T02:58:56;47.45;;;23.55;;
12745;SDS011;6437;53.686;10.030;2022-10-31T03:02:04;48.08;;;21.10;;
12745;SDS011;6437;53.686;10.030;2022-10-31T03:05:20;54.53;;;23.20;;
12745;SDS011;6437;53.686;10.030;2022-10-31T03:08:34;49.80;;;25.30;;
12745;SDS011;6437;53.686;10.030;2022-10-31T03:11:41;50.92;;;23.60;;
12745;SDS011;6437;53.686;10.030;2022-10-31T03:14:51;60.10;;;23.52;;
12745;SDS011;6437;53.686;10.030;2022-10-31T03:17:58;52.47;;;24.17;;
12745;SDS011;6437;53.686;10.030;2022-10-31T03:21:05;50.83;;;23.98;;
12745;SDS011;6437;53.686;10.030;2022-10-31T03:24:12;33.63;;;21.30;;
12745;SDS011;6437;53.686;10.030;2022-10-31T03:27:17;44.88;;;24.30;;
12745;SDS011;6437;53.686;10.030;2022-10-31T03:30:23;49.58;;;20.85;;
12745;SDS011;6437;53.686;10.030;2022-10-31T03:33:27;41.03;;;22.88;;
12745;SDS011;6437;53.686;10.030;2022-10-31T03:36:34;50.22;;;23.23;;
12745;SDS011;6437;53.686;10.030;2022-10-31T03:39:39;51.00;;;26.23;;
12745;SDS011;6437;53.686;10.030;2022-10-31T03:42:46;37.20;;;21.25;;
12745;SDS011;6437;53.686;10.030;2022-10-31T03:45:53;35.13;;;21.17;;
12745;SDS011;6437;53.686;10.030;2022-10-31T03:48:55;37.53;;;20.50;;
12745;SDS011;6437;53.686;10.030;2022-10-31T03:52:00;41.67;;;22.07;;
12745;SDS011;6437;53.686;10.030;2022-10-31T03:55:13;53.50;;;22.20;;
12745;SDS011;6437;53.686;10.030;2022-10-31T03:58:19;52.30;;;22.50;;
12745;SDS011;6437;53.686;10.030;2022-10-31T04:01:25;52.70;;;23.30;;
12745;SDS011;6437;53.686;10.030;2022-10-31T04:04:30;46.08;;;23.95;;
12745;SDS011;6437;53.686;10.030;2022-10-31T04:07:36;42.60;;;23.23;;
12745;SDS011;6437;53.686;10.030;2022-10-31T04:10:42;44.47;;;24.90;;
12745;SDS011;6437;53.686;10.030;2022-10-31T04:13:47;56.13;;;28.40;;
12745;SDS011;6437;53.686;10.030;2022-10-31T04:16:50;43.13;;;25.77;;
12745;SDS011;6437;53.686;10.030;2022-10-31T04:19:53;61.70;;;27.65;;
12745;SDS011;6437;53.686;10.030;2022-10-31T04:23:01;41.72;;;24.27;;
12745;SDS011;6437;53.686;10.030;2022-10-31T04:26:11;38.60;;;22.95;;
12745;SDS011;6437;53.686;10.030;2022-10-31T04:29:13;47.83;;;23.08;;
12745;SDS011;6437;53.686;10.030;2022-10-31T04:32:15;48.55;;;26.33;;
12745;SDS011;6437;53.686;10.030;2022-10-31T04:35:17;60.28;;;27.38;;
12745;SDS011;6437;53.686;10.030;2022-10-31T04:38:23;65.88;;;31.10;;
12745;SDS011;6437;53.686;10.030;2022-10-31T04:41:25;42.63;;;25.25;;
12745;SDS011;6437;53.686;10.030;2022-10-31T04:44:27;44.38;;;23.83;;
12745;SDS011;6437;53.686;10.030;2022-10-31T04:47:30;72.38;;;30.10;;
12745;SDS011;6437;53.686;10.030;2022-10-31T04:50:32;67.32;;;30.23;;
12745;SDS011;6437;53.686;10.030;2022-10-31T04:53:35;79.50;;;32.63;;
12745;SDS011;6437;53.686;10.030;2022-10-31T04:56:37;58.00;;;28.63;;
12745;SDS011;6437;53.686;10.030;2022-10-31T04:59:39;65.03;;;27.20;;
12745;SDS011;6437;53.686;10.030;2022-10-31T05:02:44;52.05;;;27.50;;
12745;SDS011;6437;53.686;10.030;2022-10-31T05:05:46;69.07;;;31.25;;
12745;SDS011;6437;53.686;10.030;2022-10-31T05:08:49;57.10;;;29.88;;
12745;SDS011;6437;53.686;10.030;2022-10-31T05:11:56;58.42;;;27.38;;
12745;SDS011;6437;53.686;10.030;2022-10-31T05:14:58;51.65;;;24.88;;
12745;SDS011;6437;53.686;10.030;2022-10-31T05:18:00;49.22;;;25.30;;
12745;SDS011;6437;53.686;10.030;2022-10-31T05:21:02;58.17;;;27.13;;
12745;SDS011;6437;53.686;10.030;2022-10-31T05:24:06;51.33;;;28.00;;
12745;SDS011;6437;53.686;10.030;2022-10-31T05:27:08;54.05;;;25.00;;
12745;SDS011;6437;53.686;10.030;2022-10-31T05:30:10;51.80;;;27.00;;
12745;SDS011;6437;53.686;10.030;2022-10-31T05:33:18;51.53;;;27.90;;
12745;SDS011;6437;53.686;10.030;2022-10-31T05:36:20;52.53;;;27.13;;
12745;SDS011;6437;53.686;10.030;2022-10-31T05:39:25;49.33;;;25.88;;
12745;SDS011;6437;53.686;10.030;2022-10-31T05:42:27;46.97;;;26.63;;
12745;SDS011;6437;53.686;10.030;2022-10-31T05:45:29;50.53;;;24.40;;
12745;SDS011;6437;53.686;10.030;2022-10-31T05:48:31;55.75;;;27.13;;
12745;SDS011;6437;53.686;10.030;2022-10-31T05:51:32;51.03;;;26.80;;
12745;SDS011;6437;53.686;10.030;2022-10-31T05:54:35;49.70;;;27.15;;
12745;SDS011;6437;53.686;10.030;2022-10-31T05:57:37;53.88;;;25.67;;
12745;SDS011;6437;53.686;10.030;2022-10-31T06:00:39;58.65;;;28.40;;
12745;SDS011;6437;53.686;10.030;2022-10-31T06:03:41;58.00;;;28.15;;
12745;SDS011;6437;53.686;10.030;2022-10-31T06:06:43;80.00;;;31.90;;
12745;SDS011;6437;53.686;10.030;2022-10-31T06:09:46;46.20;;;25.83;;
12745;SDS011;6437;53.686;10.030;2022-10-31T06:12:48;55.17;;;27.27;;
12745;SDS011;6437;53.686;10.030;2022-10-31T06:15:49;63.38;;;27.02;;
12745;SDS011;6437;53.686;10.030;2022-10-31T06:18:51;49.80;;;24.75;;
12745;SDS011;6437;53.686;10.030;2022-10-31T06:21:53;65.88;;;26.95;;
12745;SDS011;6437;53.686;10.030;2022-10-31T06:24:56;51.58;;;24.27;;
12745;SDS011;6437;53.686;10.030;2022-10-31T06:27:58;59.40;;;28.83;;
12745;SDS011;6437;53.686;10.030;2022-10-31T06:31:00;76.40;;;22.85;;
12745;SDS011;6437;53.686;10.030;2022-10-31T06:34:02;60.97;;;25.20;;
12745;SDS011;6437;53.686;10.030;2022-10-31T06:37:05;56.60;;;27.15;;
12745;SDS011;6437;53.686;10.030;2022-10-31T06:40:09;52.67;;;23.50;;
12745;SDS011;6437;53.686;10.030;2022-10-31T06:43:11;47.33;;;23.58;;
12745;SDS011;6437;53.686;10.030;2022-10-31T06:46:14;69.53;;;23.98;;
12745;SDS011;6437;53.686;10.030;2022-10-31T06:49:16;56.05;;;22.75;;
12745;SDS011;6437;53.686;10.030;2022-10-31T06:52:18;75.20;;;25.58;;
12745;SDS011;6437;53.686;10.030;2022-10-31T06:55:22;91.95;;;32.70;;
12745;SDS011;6437;53.686;10.030;2022-10-31T06:58:25;71.78;;;24.70;;
12745;SDS011;6437;53.686;10.030;2022-10-31T07:01:27;76.32;;;25.38;;
12745;SDS011;6437;53.686;10.030;2022-10-31T07:04:29;38.92;;;20.25;;
12745;SDS011;6437;53.686;10.030;2022-10-31T07:07:30;84.97;;;21.88;;
12745;SDS011;6437;53.686;10.030;2022-10-31T07:10:34;52.55;;;18.73;;
12745;SDS011;6437;53.686;10.030;2022-10-31T07:13:37;49.22;;;21.45;;
12745;SDS011;6437;53.686;10.030;2022-10-31T07:16:39;53.85;;;21.73;;
12745;SDS011;6437;53.686;10.030;2022-10-31T07:19:41;106.20;;;23.70;;
12745;SDS011;6437;53.686;10.030;2022-10-31T07:22:43;42.42;;;21.73;;
12745;SDS011;6437;53.686;10.030;2022-10-31T07:25:46;149.02;;;22.63;;
12745;SDS011;6437;53.686;10.030;2022-10-31T07:28:48;107.05;;;22.45;;
12745;SDS011;6437;53.686;10.030;2022-10-31T07:31:50;61.42;;;17.10;;
12745;SDS011;6437;53.686;10.030;2022-10-31T07:34:52;61.08;;;19.80;;
12745;SDS011;6437;53.686;10.030;2022-10-31T07:37:54;51.88;;;21.85;;
12745;SDS011;6437;53.686;10.030;2022-10-31T07:40:57;39.38;;;20.55;;
12745;SDS011;6437;53.686;10.030;2022-10-31T07:43:59;38.78;;;20.92;;
12745;SDS011;6437;53.686;10.030;2022-10-31T07:47:01;41.88;;;20.73;;
12745;SDS011;6437;53.686;10.030;2022-10-31T07:50:03;44.08;;;19.42;;
12745;SDS011;6437;53.686;10.030;2022-10-31T07:53:05;69.63;;;19.38;;
12745;SDS011;6437;53.686;10.030;2022-10-31T07:56:10;54.97;;;18.13;;
12745;SDS011;6437;53.686;10.030;2022-10-31T07:59:11;56.83;;;21.38;;
12745;SDS011;6437;53.686;10.030;2022-10-31T08:02:13;54.83;;;20.67;;
12745;SDS011;6437;53.686;10.030;2022-10-31T08:05:15;42.50;;;21.33;;
12745;SDS011;6437;53.686;10.030;2022-10-31T08:08:17;58.75;;;23.48;;
12745;SDS011;6437;53.686;10.030;2022-10-31T08:11:20;58.55;;;21.73;;
12745;SDS011;6437;53.686;10.030;2022-10-31T08:14:22;82.57;;;22.67;;
12745;SDS011;6437;53.686;10.030;2022-10-31T08:17:24;51.75;;;19.77;;
12745;SDS011;6437;53.686;10.030;2022-10-31T08:20:26;80.78;;;20.50;;
12745;SDS011;6437;53.686;10.030;2022-10-31T08:23:28;39.08;;;19.92;;
12745;SDS011;6437;53.686;10.030;2022-10-31T08:26:34;55.88;;;22.40;;
12745;SDS011;6437;53.686;10.030;2022-10-31T08:29:35;35.15;;;19.45;;
12745;SDS011;6437;53.686;10.030;2022-10-31T08:32:40;37.60;;;18.35;;
12745;SDS011;6437;53.686;10.030;2022-10-31T08:35:42;56.05;;;20.88;;
12745;SDS011;6437;53.686;10.030;2022-10-31T08:38:44;40.25;;;21.20;;
12745;SDS011;6437;53.686;10.030;2022-10-31T08:41:49;31.27;;;16.40;;
12745;SDS011;6437;53.686;10.030;2022-10-31T08:44:51;55.67;;;20.08;;
12745;SDS011;6437;53.686;10.030;2022-10-31T08:47:56;35.60;;;18.25;;
12745;SDS011;6437;53.686;10.030;2022-10-31T08:50:59;46.72;;;21.23;;
12745;SDS011;6437;53.686;10.030;2022-10-31T08:54:01;50.40;;;19.60;;
12745;SDS011;6437;53.686;10.030;2022-10-31T08:57:04;76.00;;;19.35;;
12745;SDS011;6437;53.686;10.030;2022-10-31T09:00:07;44.67;;;19.92;;
12745;SDS011;6437;53.686;10.030;2022-10-31T09:03:11;43.13;;;18.98;;
12745;SDS011;6437;53.686;10.030;2022-10-31T09:06:14;33.95;;;18.15;;
12745;SDS011;6437;53.686;10.030;2022-10-31T09:09:15;61.90;;;20.00;;
12745;SDS011;6437;53.686;10.030;2022-10-31T09:12:19;32.78;;;18.42;;
12745;SDS011;6437;53.686;10.030;2022-10-31T09:15:29;27.75;;;18.27;;
12745;SDS011;6437;53.686;10.030;2022-10-31T09:18:31;36.03;;;18.90;;
12745;SDS011;6437;53.686;10.030;2022-10-31T09:21:33;33.15;;;18.27;;
12745;SDS011;6437;53.686;10.030;2022-10-31T09:24:35;38.88;;;20.88;;
12745;SDS011;6437;53.686;10.030;2022-10-31T09:27:38;33.28;;;19.60;;
12745;SDS011;6437;53.686;10.030;2022-10-31T09:30:40;30.40;;;19.73;;
12745;SDS011;6437;53.686;10.030;2022-10-31T09:33:42;47.80;;;20.17;;
12745;SDS011;6437;53.686;10.030;2022-10-31T09:36:44;28.52;;;18.05;;
12745;SDS011;6437;53.686;10.030;2022-10-31T09:39:46;31.35;;;18.48;;
12745;SDS011;6437;53.686;10.030;2022-10-31T09:42:52;31.60;;;18.35;;
12745;SDS011;6437;53.686;10.030;2022-10-31T09:46:00;32.83;;;17.98;;
12745;SDS011;6437;53.686;10.030;2022-10-31T09:52:35;25.85;;;16.40;;
12745;SDS011;6437;53.686;10.030;2022-10-31T09:55:41;32.85;;;18.77;;
12745;SDS011;6437;53.686;10.030;2022-10-31T09:58:49;31.65;;;17.67;;
12745;SDS011;6437;53.686;10.030;2022-10-31T10:01:55;31.67;;;17.85;;
12745;SDS011;6437;53.686;10.030;2022-10-31T10:05:01;32.08;;;16.88;;
12745;SDS011;6437;53.686;10.030;2022-10-31T10:08:07;31.77;;;17.80;;
12745;SDS011;6437;53.686;10.030;2022-10-31T10:11:20;32.15;;;19.08;;
12745;SDS011;6437;53.686;10.030;2022-10-31T10:14:37;29.33;;;16.77;;
12745;SDS011;6437;53.686;10.030;2022-10-31T10:17:51;27.40;;;15.57;;
12745;SDS011;6437;53.686;10.030;2022-10-31T10:21:06;30.35;;;17.38;;
12745;SDS011;6437;53.686;10.030;2022-10-31T10:24:22;29.10;;;16.40;;
12745;SDS011;6437;53.686;10.030;2022-10-31T10:27:36;25.73;;;14.90;;
12745;SDS011;6437;53.686;10.030;2022-10-31T10:30:58;30.70;;;16.40;;
12745;SDS011;6437;53.686;10.030;2022-10-31T10:34:07;24.17;;;15.63;;
12745;SDS011;6437;53.686;10.030;2022-10-31T10:37:17;33.78;;;16.23;;
12745;SDS011;6437;53.686;10.030;2022-10-31T10:40:25;22.27;;;14.35;;
12745;SDS011;6437;53.686;10.030;2022-10-31T10:43:29;25.10;;;14.77;;
12745;SDS011;6437;53.686;10.030;2022-10-31T10:46:39;23.45;;;14.73;;
12745;SDS011;6437;53.686;10.030;2022-10-31T10:49:59;23.05;;;12.40;;
12745;SDS011;6437;53.686;10.030;2022-10-31T10:53:12;23.42;;;14.85;;
12745;SDS011;6437;53.686;10.030;2022-10-31T10:56:36;28.00;;;16.15;;
12745;SDS011;6437;53.686;10.030;2022-10-31T10:59:52;32.78;;;16.05;;
12745;SDS011;6437;53.686;10.030;2022-10-31T11:02:55;29.40;;;15.73;;
12745;SDS011;6437;53.686;10.030;2022-10-31T11:09:07;27.65;;;14.55;;
12745;SDS011;6437;53.686;10.030;2022-10-31T11:12:15;26.10;;;14.55;;
12745;SDS011;6437;53.686;10.030;2022-10-31T11:15:25;21.45;;;12.88;;
12745;SDS011;6437;53.686;10.030;2022-10-31T11:18:31;20.90;;;12.38;;
12745;SDS011;6437;53.686;10.030;2022-10-31T11:21:35;20.20;;;11.18;;
12745;SDS011;6437;53.686;10.030;2022-10-31T11:24:37;20.40;;;10.45;;
12745;SDS011;6437;53.686;10.030;2022-10-31T11:27:41;14.55;;;9.75;;
12745;SDS011;6437;53.686;10.030;2022-10-31T11:30:44;18.88;;;11.80;;
12745;SDS011;6437;53.686;10.030;2022-10-31T11:33:53;16.17;;;11.05;;
12745;SDS011;6437;53.686;10.030;2022-10-31T11:37:01;15.63;;;10.60;;
12745;SDS011;6437;53.686;10.030;2022-10-31T11:40:14;20.63;;;12.57;;
12745;SDS011;6437;53.686;10.030;2022-10-31T11:43:19;22.88;;;11.52;;
12745;SDS011;6437;53.686;10.030;2022-10-31T11:46:22;22.42;;;12.45;;
12745;SDS011;6437;53.686;10.030;2022-10-31T11:49:31;18.33;;;11.10;;
12745;SDS011;6437;53.686;10.030;2022-10-31T11:52:36;16.95;;;10.30;;
12745;SDS011;6437;53.686;10.030;2022-10-31T11:55:40;16.60;;;10.20;;
12745;SDS011;6437;53.686;10.030;2022-10-31T11:58:42;23.00;;;12.23;;
12745;SDS011;6437;53.686;10.030;2022-10-31T12:01:56;21.77;;;11.35;;
12745;SDS011;6437;53.686;10.030;2022-10-31T12:05:02;21.48;;;11.50;;
12745;SDS011;6437;53.686;10.030;2022-10-31T12:08:12;15.95;;;10.45;;
12745;SDS011;6437;53.686;10.030;2022-10-31T12:11:23;19.35;;;10.15;;
12745;SDS011;6437;53.686;10.030;2022-10-31T12:14:39;14.68;;;9.45;;
12745;SDS011;6437;53.686;10.030;2022-10-31T12:17:49;23.83;;;12.68;;
12745;SDS011;6437;53.686;10.030;2022-10-31T12:21:03;23.77;;;11.82;;
12745;SDS011;6437;53.686;10.030;2022-10-31T12:24:18;15.05;;;10.55;;
12745;SDS011;6437;53.686;10.030;2022-10-31T12:27:34;20.50;;;11.55;;
12745;SDS011;6437;53.686;10.030;2022-10-31T12:30:51;19.83;;;11.75;;
12745;SDS011;6437;53.686;10.030;2022-10-31T12:34:02;17.15;;;10.25;;
12745;SDS011;6437;53.686;10.030;2022-10-31T12:37:23;12.10;;;10.27;;
12745;SDS011;6437;53.686;10.030;2022-10-31T12:40:46;26.60;;;14.13;;
12745;SDS011;6437;53.686;10.030;2022-10-31T12:44:02;19.92;;;13.35;;
12745;SDS011;6437;53.686;10.030;2022-10-31T12:47:13;18.00;;;11.57;;
12745;SDS011;6437;53.686;10.030;2022-10-31T12:50:43;16.88;;;12.50;;
12745;SDS011;6437;53.686;10.030;2022-10-31T12:53:59;24.15;;;12.25;;
12745;SDS011;6437;53.686;10.030;2022-10-31T12:57:14;23.85;;;13.30;;
12745;SDS011;6437;53.686;10.030;2022-10-31T13:00:33;22.98;;;12.38;;
12745;SDS011;6437;53.686;10.030;2022-10-31T13:03:40;19.35;;;13.68;;
12745;SDS011;6437;53.686;10.030;2022-10-31T13:06:50;17.70;;;11.57;;
12745;SDS011;6437;53.686;10.030;2022-10-31T13:10:00;21.58;;;11.70;;
12745;SDS011;6437;53.686;10.030;2022-10-31T13:13:05;19.42;;;12.15;;
12745;SDS011;6437;53.686;10.030;2022-10-31T13:16:14;23.60;;;13.57;;
12745;SDS011;6437;53.686;10.030;2022-10-31T13:19:19;31.02;;;13.95;;
12745;SDS011;6437;53.686;10.030;2022-10-31T13:22:25;25.50;;;13.00;;
12745;SDS011;6437;53.686;10.030;2022-10-31T13:25:33;28.55;;;13.55;;
12745;SDS011;6437;53.686;10.030;2022-10-31T13:28:43;20.83;;;12.73;;
12745;SDS011;6437;53.686;10.030;2022-10-31T13:31:54;25.70;;;13.95;;
12745;SDS011;6437;53.686;10.030;2022-10-31T13:34:56;24.60;;;14.23;;
12745;SDS011;6437;53.686;10.030;2022-10-31T13:38:10;19.38;;;13.63;;
12745;SDS011;6437;53.686;10.030;2022-10-31T13:41:22;23.10;;;14.40;;
12745;SDS011;6437;53.686;10.030;2022-10-31T13:44:34;29.58;;;16.15;;
12745;SDS011;6437;53.686;10.030;2022-10-31T13:47:38;27.13;;;13.90;;
12745;SDS011;6437;53.686;10.030;2022-10-31T13:50:43;26.30;;;15.23;;
12745;SDS011;6437;53.686;10.030;2022-10-31T13:53:58;30.45;;;17.58;;
12745;SDS011;6437;53.686;10.030;2022-10-31T13:57:06;23.77;;;15.77;;
12745;SDS011;6437;53.686;10.030;2022-10-31T14:00:21;25.55;;;14.52;;
12745;SDS011;6437;53.686;10.030;2022-10-31T14:03:36;22.67;;;15.05;;
12745;SDS011;6437;53.686;10.030;2022-10-31T14:09:49;27.30;;;16.75;;
12745;SDS011;6437;53.686;10.030;2022-10-31T14:13:04;21.98;;;14.05;;
12745;SDS011;6437;53.686;10.030;2022-10-31T14:16:16;29.13;;;15.20;;
12745;SDS011;6437;53.686;10.030;2022-10-31T14:19:21;26.77;;;15.38;;
12745;SDS011;6437;53.686;10.030;2022-10-31T14:22:28;34.53;;;19.77;;
12745;SDS011;6437;53.686;10.030;2022-10-31T14:25:31;37.97;;;22.52;;
12745;SDS011;6437;53.686;10.030;2022-10-31T14:28:36;41.25;;;21.85;;
12745;SDS011;6437;53.686;10.030;2022-10-31T14:31:38;39.83;;;24.73;;
12745;SDS011;6437;53.686;10.030;2022-10-31T14:34:43;43.00;;;24.63;;
12745;SDS011;6437;53.686;10.030;2022-10-31T14:41:32;38.22;;;22.25;;
12745;SDS011;6437;53.686;10.030;2022-10-31T14:44:57;37.97;;;20.92;;
12745;SDS011;6437;53.686;10.030;2022-10-31T14:48:13;35.60;;;21.70;;
12745;SDS011;6437;53.686;10.030;2022-10-31T14:51:28;37.78;;;22.75;;
12745;SDS011;6437;53.686;10.030;2022-10-31T14:54:37;36.15;;;20.20;;
12745;SDS011;6437;53.686;10.030;2022-10-31T14:57:43;38.22;;;19.95;;
12745;SDS011;6437;53.686;10.030;2022-10-31T15:00:53;34.60;;;18.52;;
12745;SDS011;6437;53.686;10.030;2022-10-31T15:03:58;30.75;;;17.30;;
12745;SDS011;6437;53.686;10.030;2022-10-31T15:07:06;26.65;;;17.10;;
12745;SDS011;6437;53.686;10.030;2022-10-31T15:10:19;25.85;;;15.98;;
12745;SDS011;6437;53.686;10.030;2022-10-31T15:13:22;28.98;;;18.00;;
12745;SDS011;6437;53.686;10.030;2022-10-31T15:16:26;28.65;;;16.98;;
12745;SDS011;6437;53.686;10.030;2022-10-31T15:19:30;27.63;;;15.63;;
12745;SDS011;6437;53.686;10.030;2022-10-31T15:22:36;30.75;;;14.43;;
12745;SDS011;6437;53.686;10.030;2022-10-31T15:25:38;24.23;;;14.32;;
12745;SDS011;6437;53.686;10.030;2022-10-31T15:28:40;24.10;;;14.45;;
12745;SDS011;6437;53.686;10.030;2022-10-31T15:31:50;26.95;;;14.25;;
12745;SDS011;6437;53.686;10.030;2022-10-31T15:34:52;32.17;;;15.25;;
12745;SDS011;6437;53.686;10.030;2022-10-31T15:37:56;29.77;;;13.10;;
12745;SDS011;6437;53.686;10.030;2022-10-31T15:41:00;24.98;;;12.20;;
12745;SDS011;6437;53.686;10.030;2022-10-31T15:44:12;24.08;;;12.85;;
12745;SDS011;6437;53.686;10.030;2022-10-31T15:47:18;31.98;;;11.23;;
12745;SDS011;6437;53.686;10.030;2022-10-31T15:50:23;20.35;;;8.80;;
12745;SDS011;6437;53.686;10.030;2022-10-31T15:53:31;24.23;;;9.77;;
12745;SDS011;6437;53.686;10.030;2022-10-31T15:56:37;17.02;;;8.95;;
12745;SDS011;6437;53.686;10.030;2022-10-31T15:59:39;15.10;;;7.80;;
12745;SDS011;6437;53.686;10.030;2022-10-31T16:02:44;17.05;;;7.95;;
12745;SDS011;6437;53.686;10.030;2022-10-31T16:05:47;13.32;;;8.30;;
12745;SDS011;6437;53.686;10.030;2022-10-31T16:08:50;15.73;;;8.05;;
12745;SDS011;6437;53.686;10.030;2022-10-31T16:11:52;15.05;;;7.80;;
12745;SDS011;6437;53.686;10.030;2022-10-31T16:14:56;23.10;;;10.00;;
12745;SDS011;6437;53.686;10.030;2022-10-31T16:18:00;29.13;;;10.45;;
12745;SDS011;6437;53.686;10.030;2022-10-31T16:21:02;23.77;;;11.48;;
12745;SDS011;6437;53.686;10.030;2022-10-31T16:24:05;23.43;;;12.90;;
12745;SDS011;6437;53.686;10.030;2022-10-31T16:27:18;16.33;;;10.95;;
12745;SDS011;6437;53.686;10.030;2022-10-31T16:30:32;25.40;;;14.75;;
12745;SDS011;6437;53.686;10.030;2022-10-31T16:33:40;23.58;;;12.18;;
12745;SDS011;6437;53.686;10.030;2022-10-31T16:39:44;23.85;;;14.15;;
12745;SDS011;6437;53.686;10.030;2022-10-31T16:42:46;31.35;;;14.65;;
12745;SDS011;6437;53.686;10.030;2022-10-31T16:45:49;32.03;;;17.30;;
12745;SDS011;6437;53.686;10.030;2022-10-31T16:51:55;24.83;;;15.27;;
12745;SDS011;6437;53.686;10.030;2022-10-31T16:54:57;31.23;;;17.33;;
12745;SDS011;6437;53.686;10.030;2022-10-31T16:57:59;36.85;;;22.02;;
12745;SDS011;6437;53.686;10.030;2022-10-31T17:01:01;38.95;;;20.05;;
12745;SDS011;6437;53.686;10.030;2022-10-31T17:04:07;28.70;;;17.00;;
12745;SDS011;6437;53.686;10.030;2022-10-31T17:07:13;34.25;;;17.80;;
12745;SDS011;6437;53.686;10.030;2022-10-31T17:10:15;33.75;;;19.20;;
12745;SDS011;6437;53.686;10.030;2022-10-31T17:13:18;33.45;;;19.98;;
12745;SDS011;6437;53.686;10.030;2022-10-31T17:16:25;37.83;;;20.42;;
12745;SDS011;6437;53.686;10.030;2022-10-31T17:19:28;33.35;;;18.02;;
12745;SDS011;6437;53.686;10.030;2022-10-31T17:22:30;32.90;;;17.88;;
12745;SDS011;6437;53.686;10.030;2022-10-31T17:25:32;37.72;;;20.23;;
12745;SDS011;6437;53.686;10.030;2022-10-31T17:28:35;42.80;;;20.35;;
12745;SDS011;6437;53.686;10.030;2022-10-31T17:31:37;34.35;;;17.98;;
12745;SDS011;6437;53.686;10.030;2022-10-31T17:34:40;42.72;;;19.20;;
12745;SDS011;6437;53.686;10.030;2022-10-31T17:37:43;44.63;;;21.02;;
12745;SDS011;6437;53.686;10.030;2022-10-31T17:40:45;45.22;;;21.67;;
12745;SDS011;6437;53.686;10.030;2022-10-31T17:43:47;42.65;;;20.33;;
12745;SDS011;6437;53.686;10.030;2022-10-31T17:46:49;33.05;;;17.48;;
12745;SDS011;6437;53.686;10.030;2022-10-31T17:49:52;38.53;;;18.23;;
12745;SDS011;6437;53.686;10.030;2022-10-31T17:56:04;34.78;;;17.38;;
12745;SDS011;6437;53.686;10.030;2022-10-31T17:59:07;59.67;;;19.35;;
12745;SDS011;6437;53.686;10.030;2022-10-31T18:02:09;31.40;;;13.88;;
12745;SDS011;6437;53.686;10.030;2022-10-31T18:05:13;28.38;;;15.20;;
12745;SDS011;6437;53.686;10.030;2022-10-31T18:08:14;31.38;;;15.38;;
12745;SDS011;6437;53.686;10.030;2022-10-31T18:11:18;36.67;;;16.38;;
12745;SDS011;6437;53.686;10.030;2022-10-31T18:14:21;29.00;;;16.13;;
12745;SDS011;6437;53.686;10.030;2022-10-31T18:17:23;30.92;;;15.50;;
12745;SDS011;6437;53.686;10.030;2022-10-31T18:20:27;32.97;;;16.50;;
12745;SDS011;6437;53.686;10.030;2022-10-31T18:23:29;23.77;;;14.52;;
12745;SDS011;6437;53.686;10.030;2022-10-31T18:26:31;35.72;;;16.83;;
12745;SDS011;6437;53.686;10.030;2022-10-31T18:29:33;40.45;;;15.85;;
12745;SDS011;6437;53.686;10.030;2022-10-31T18:32:35;32.70;;;15.65;;
12745;SDS011;6437;53.686;10.030;2022-10-31T18:35:38;41.53;;;17.30;;
12745;SDS011;6437;53.686;10.030;2022-10-31T18:38:43;32.67;;;16.13;;